Time;durP1;ratioP1;P1;durP2;ratioP2;P2;SDS_P1;SDS_P2;PMS_P1;PMS_P2;Temp;Humidity;BMP_temperature;BMP_pressure;BME280_temperature;BME280_humidity;BME280_pressure;Samples;Min_cycle;Max_cycle;Signal;HPM_P1;HPM_P2
2022/03/26 00:00:23;;;;;;;23.00;13.53;;;9.90;97.00;;;;;;5093260;28;20385;-79
2022/03/26 00:03:08;;;;;;;23.83;15.23;;;9.90;96.80;;;;;;5090924;28;20385;-80
2022/03/26 00:05:53;;;;;;;30.77;17.30;;;9.80;96.50;;;;;;5076225;28;20443;-80
2022/03/26 00:08:37;;;;;;;25.40;15.73;;;9.70;99.10;;;;;;5091585;28;20468;-80
2022/03/26 00:11:22;;;;;;;28.27;16.90;;;9.60;99.90;;;;;;5094039;28;20386;-80
2022/03/26 00:14:07;;;;;;;22.97;14.30;;;9.60;99.90;;;;;;5095516;28;20469;-79
2022/03/26 00:16:52;;;;;;;38.00;16.00;;;9.60;99.90;;;;;;5095107;28;20468;-79
2022/03/26 00:19:37;;;;;;;21.13;15.50;;;9.60;99.90;;;;;;5095078;28;20393;-79
2022/03/26 00:22:22;;;;;;;21.90;13.43;;;9.60;99.90;;;;;;5098077;28;20373;-79
2022/03/26 00:25:09;;;;;;;26.07;14.30;;;9.60;99.90;;;;;;5099482;28;20408;-79
2022/03/26 00:27:53;;;;;;;20.90;12.20;;;9.40;99.90;;;;;;5100138;28;20471;-79
2022/03/26 00:30:38;;;;;;;24.47;14.23;;;9.50;99.90;;;;;;5100312;28;20499;-80
2022/03/26 00:33:23;;;;;;;27.50;12.77;;;9.40;99.90;;;;;;5100052;28;20401;-78
2022/03/26 00:36:12;;;;;;;19.10;12.93;;;9.40;99.90;;;;;;5082829;28;20955;-79
2022/03/26 00:38:57;;;;;;;29.60;13.73;;;9.30;99.90;;;;;;5084417;28;20397;-80
2022/03/26 00:41:41;;;;;;;24.83;14.00;;;9.20;99.90;;;;;;5098847;28;20373;-79
2022/03/26 00:44:26;;;;;;;23.70;14.20;;;9.20;99.90;;;;;;5099456;28;20411;-79
2022/03/26 00:47:12;;;;;;;22.53;13.70;;;9.10;99.90;;;;;;5098890;28;20382;-80
2022/03/26 00:49:58;;;;;;;20.40;11.43;;;9.20;99.90;;;;;;5098960;28;20416;-79
2022/03/26 00:52:44;;;;;;;22.27;13.43;;;9.20;99.90;;;;;;5098347;28;20400;-79
2022/03/26 00:55:29;;;;;;;25.03;13.30;;;9.20;99.90;;;;;;5097086;28;20508;-80
2022/03/26 00:58:13;;;;;;;26.93;16.67;;;9.20;99.90;;;;;;5098975;28;20400;-80
2022/03/26 01:00:58;;;;;;;22.23;12.90;;;9.20;99.90;;;;;;5097892;28;20393;-79
2022/03/26 01:03:43;;;;;;;30.00;13.70;;;9.10;99.90;;;;;;5099093;28;20420;-80
2022/03/26 01:06:28;;;;;;;22.87;14.17;;;9.20;99.90;;;;;;5098057;28;20448;-79
2022/03/26 01:09:12;;;;;;;20.83;13.13;;;9.20;99.90;;;;;;5098277;28;20491;-79
2022/03/26 01:11:57;;;;;;;26.03;15.43;;;9.20;99.90;;;;;;5097411;28;20409;-80
2022/03/26 01:14:42;;;;;;;25.13;16.10;;;9.10;99.90;;;;;;5098717;28;20408;-79
2022/03/26 01:17:27;;;;;;;21.33;14.00;;;9.00;99.90;;;;;;5097680;28;20380;-80
2022/03/26 01:20:12;;;;;;;28.90;13.97;;;9.00;99.90;;;;;;5099225;28;20389;-80
2022/03/26 01:22:57;;;;;;;24.47;13.23;;;9.00;99.90;;;;;;5096871;28;20396;-79
2022/03/26 01:25:42;;;;;;;24.87;14.13;;;8.90;99.90;;;;;;5074934;28;20394;-80
2022/03/26 01:28:26;;;;;;;21.33;13.90;;;8.90;99.90;;;;;;5098818;28;20476;-79
2022/03/26 01:31:11;;;;;;;19.43;12.33;;;8.90;99.90;;;;;;5099187;28;20393;-79
2022/03/26 01:33:55;;;;;;;23.80;13.40;;;8.80;99.90;;;;;;5098989;28;20416;-80
2022/03/26 01:36:41;;;;;;;27.93;14.60;;;8.70;99.90;;;;;;5099425;28;20448;-79
2022/03/26 01:39:27;;;;;;;30.20;13.73;;;8.60;99.90;;;;;;5083769;28;20444;-80
2022/03/26 01:42:12;;;;;;;22.57;14.90;;;8.50;99.90;;;;;;5099301;28;20380;-79
2022/03/26 01:44:57;;;;;;;25.60;13.77;;;8.60;99.90;;;;;;5097102;28;20412;-78
2022/03/26 01:47:42;;;;;;;27.10;13.83;;;8.50;99.90;;;;;;5097415;28;20443;-79
2022/03/26 01:50:28;;;;;;;27.40;14.10;;;8.50;99.90;;;;;;5097719;28;20385;-79
2022/03/26 01:53:12;;;;;;;21.00;13.40;;;8.50;99.90;;;;;;5083101;28;20470;-79
2022/03/26 01:55:57;;;;;;;21.10;12.90;;;8.40;99.90;;;;;;5083658;28;20504;-79
2022/03/26 01:58:42;;;;;;;26.90;14.43;;;8.30;99.90;;;;;;5095576;28;20402;-79
2022/03/26 02:01:31;;;;;;;22.43;13.10;;;8.20;99.90;;;;;;5075992;28;20380;-79
2022/03/26 02:04:16;;;;;;;31.10;15.40;;;8.20;99.90;;;;;;5095482;28;20436;-80
2022/03/26 02:07:04;;;;;;;24.50;13.97;;;8.20;99.90;;;;;;5098130;28;20453;-79
2022/03/26 02:09:49;;;;;;;24.90;13.57;;;8.20;99.90;;;;;;5096687;28;20619;-79
2022/03/26 02:12:33;;;;;;;22.20;13.50;;;8.10;99.90;;;;;;5098586;28;20389;-79
2022/03/26 02:15:18;;;;;;;22.00;13.83;;;8.10;99.90;;;;;;5098406;28;20392;-80
2022/03/26 02:18:05;;;;;;;21.73;13.30;;;8.00;99.90;;;;;;5098468;28;20401;-79
2022/03/26 02:20:50;;;;;;;28.80;13.53;;;8.00;99.90;;;;;;5098561;28;20411;-79
2022/03/26 02:23:35;;;;;;;24.93;14.30;;;8.00;99.90;;;;;;5098318;28;20380;-79
2022/03/26 02:26:22;;;;;;;36.70;14.90;;;7.90;99.90;;;;;;5082695;28;20380;-79
2022/03/26 02:29:10;;;;;;;34.90;14.83;;;7.90;99.90;;;;;;5097978;28;20868;-80
2022/03/26 02:31:55;;;;;;;25.67;14.53;;;7.90;99.90;;;;;;5097803;28;20442;-79
2022/03/26 02:34:41;;;;;;;19.83;15.37;;;7.90;99.90;;;;;;5082399;28;20404;-79
2022/03/26 02:37:25;;;;;;;22.47;13.97;;;7.90;99.90;;;;;;5068446;28;20408;-79
2022/03/26 02:40:10;;;;;;;26.07;13.50;;;7.90;99.90;;;;;;5098336;28;20380;-79
2022/03/26 02:42:55;;;;;;;25.40;15.20;;;7.90;99.90;;;;;;5077287;28;20400;-79
2022/03/26 02:45:47;;;;;;;23.93;13.77;;;7.80;99.90;;;;;;5098669;28;20405;-79
2022/03/26 02:48:31;;;;;;;28.13;13.57;;;7.80;99.90;;;;;;5098339;28;20491;-80
2022/03/26 02:51:16;;;;;;;28.50;13.40;;;7.90;99.90;;;;;;5098469;28;20440;-79
2022/03/26 02:54:01;;;;;;;29.33;14.43;;;7.80;99.90;;;;;;5083084;28;20420;-80
2022/03/26 02:56:48;;;;;;;18.97;14.67;;;7.80;99.90;;;;;;5098334;28;20416;-79
2022/03/26 02:59:32;;;;;;;24.37;12.70;;;7.70;99.90;;;;;;5098430;28;20396;-78
2022/03/26 03:02:17;;;;;;;20.53;13.20;;;7.70;99.90;;;;;;5083607;28;20393;-79
2022/03/26 03:05:02;;;;;;;24.43;14.63;;;7.70;99.90;;;;;;5098254;28;20408;-79
2022/03/26 03:07:48;;;;;;;18.73;12.53;;;7.70;99.90;;;;;;5059733;28;20473;-78
2022/03/26 03:10:33;;;;;;;22.23;12.17;;;7.70;99.90;;;;;;5058134;28;20398;-78
2022/03/26 03:13:21;;;;;;;24.63;14.73;;;7.60;99.90;;;;;;5055883;28;20503;-79
2022/03/26 03:16:06;;;;;;;26.40;13.40;;;7.70;99.90;;;;;;5056907;28;20387;-78
2022/03/26 03:18:51;;;;;;;27.33;14.60;;;7.60;99.90;;;;;;5057900;28;20490;-79
2022/03/26 03:21:37;;;;;;;25.73;14.00;;;7.60;99.90;;;;;;5056219;28;20423;-80
2022/03/26 03:24:21;;;;;;;33.80;15.90;;;7.60;99.90;;;;;;5056580;28;20399;-80
2022/03/26 03:27:07;;;;;;;21.47;15.03;;;7.60;99.90;;;;;;5056105;28;20410;-79
2022/03/26 03:29:52;;;;;;;25.93;15.23;;;7.50;99.90;;;;;;5057256;28;20407;-80
2022/03/26 03:32:37;;;;;;;27.30;15.27;;;7.40;99.90;;;;;;5057631;28;20391;-80
2022/03/26 03:35:22;;;;;;;21.40;12.67;;;7.30;99.90;;;;;;5057455;28;20387;-80
2022/03/26 03:38:07;;;;;;;23.17;14.43;;;7.10;99.90;;;;;;5056349;28;20394;-79
2022/03/26 03:40:52;;;;;;;19.77;14.23;;;7.10;99.90;;;;;;5056384;28;20395;-79
2022/03/26 03:43:37;;;;;;;27.20;14.47;;;7.00;99.90;;;;;;5057468;28;20386;-80
2022/03/26 03:46:22;;;;;;;25.93;14.13;;;7.00;99.90;;;;;;5056480;28;20406;-80
2022/03/26 03:49:07;;;;;;;30.73;15.33;;;6.90;99.90;;;;;;5055165;28;20466;-79
2022/03/26 03:51:51;;;;;;;21.50;13.97;;;6.90;99.90;;;;;;5057520;28;20458;-79
2022/03/26 03:54:36;;;;;;;24.23;15.47;;;6.90;99.90;;;;;;5057658;28;20391;-80
2022/03/26 03:57:21;;;;;;;24.30;13.93;;;6.80;99.90;;;;;;5060179;28;20399;-80
2022/03/26 04:00:07;;;;;;;21.90;13.30;;;6.80;99.90;;;;;;5059474;28;20450;-78
2022/03/26 04:02:53;;;;;;;25.00;13.57;;;6.80;99.90;;;;;;5060541;28;20394;-79
2022/03/26 04:05:39;;;;;;;24.13;14.13;;;6.80;99.90;;;;;;5060997;28;20398;-79
2022/03/26 04:08:24;;;;;;;19.27;13.00;;;6.80;99.90;;;;;;5061098;28;20469;-79
2022/03/26 04:11:09;;;;;;;29.80;14.47;;;6.70;99.90;;;;;;5060979;28;20387;-80
2022/03/26 04:13:54;;;;;;;20.50;13.77;;;6.70;99.90;;;;;;5061080;28;20482;-79
2022/03/26 04:16:38;;;;;;;25.40;14.63;;;6.70;99.90;;;;;;5058272;28;20403;-79
2022/03/26 04:19:23;;;;;;;24.27;15.10;;;6.60;99.90;;;;;;5060569;28;20501;-79
2022/03/26 04:22:08;;;;;;;22.03;11.97;;;6.50;99.90;;;;;;5060394;28;20414;-79
2022/03/26 04:24:52;;;;;;;26.77;13.93;;;6.50;99.90;;;;;;5058133;28;20399;-80
2022/03/26 04:27:43;;;;;;;25.30;13.00;;;6.50;99.90;;;;;;5058903;28;20394;-79
2022/03/26 04:30:27;;;;;;;20.73;14.80;;;6.40;99.90;;;;;;5059832;28;20394;-80
2022/03/26 04:33:12;;;;;;;18.83;13.07;;;6.40;99.90;;;;;;5060058;28;20387;-79
2022/03/26 04:35:57;;;;;;;26.57;14.47;;;6.50;99.90;;;;;;5060479;28;20391;-78
2022/03/26 04:38:42;;;;;;;22.90;13.23;;;6.40;99.90;;;;;;5045688;28;20453;-78
2022/03/26 04:41:28;;;;;;;20.03;12.40;;;6.50;99.90;;;;;;5060658;28;20417;-81
2022/03/26 04:44:12;;;;;;;16.53;12.77;;;6.40;99.90;;;;;;5059729;28;20422;-79
2022/03/26 04:46:57;;;;;;;27.70;13.53;;;6.40;99.90;;;;;;5072108;28;20444;-80
2022/03/26 04:49:42;;;;;;;20.80;14.40;;;6.40;99.90;;;;;;5079224;28;20386;-79
2022/03/26 04:52:27;;;;;;;23.93;13.20;;;6.40;99.90;;;;;;5078231;28;20386;-80
2022/03/26 04:55:12;;;;;;;31.03;14.27;;;6.40;99.90;;;;;;5075985;28;20408;-80
2022/03/26 04:57:57;;;;;;;23.33;13.57;;;6.50;99.90;;;;;;5077771;28;20472;-80
2022/03/26 05:00:42;;;;;;;18.87;13.03;;;6.40;99.90;;;;;;5075087;28;20402;-79
2022/03/26 05:03:26;;;;;;;27.87;15.00;;;6.40;99.90;;;;;;5077630;28;20430;-80
2022/03/26 05:06:11;;;;;;;31.20;14.53;;;6.30;99.90;;;;;;5087400;28;20475;-80
2022/03/26 05:08:55;;;;;;;25.43;16.50;;;6.40;99.90;;;;;;5117063;28;20456;-79
2022/03/26 05:11:40;;;;;;;21.77;12.83;;;6.40;99.90;;;;;;5118643;28;20400;-79
2022/03/26 05:14:25;;;;;;;21.70;11.40;;;6.40;99.90;;;;;;5104549;28;20447;-79
2022/03/26 05:17:09;;;;;;;26.43;12.67;;;6.30;99.90;;;;;;5119934;28;20419;-79
2022/03/26 05:19:54;;;;;;;21.07;13.07;;;6.30;99.90;;;;;;5120111;28;20380;-79
2022/03/26 05:22:40;;;;;;;25.97;15.13;;;6.30;99.90;;;;;;5119889;28;20384;-79
2022/03/26 05:25:24;;;;;;;26.10;13.13;;;6.20;99.90;;;;;;5119437;28;20384;-79
2022/03/26 05:28:09;;;;;;;24.83;16.73;;;6.20;99.90;;;;;;5119689;28;20396;-79
2022/03/26 05:30:54;;;;;;;23.53;13.50;;;6.10;99.90;;;;;;5119624;28;20381;-79
2022/03/26 05:33:38;;;;;;;28.10;14.67;;;6.20;99.90;;;;;;5119570;28;20401;-80
2022/03/26 05:36:23;;;;;;;25.20;14.37;;;6.20;99.90;;;;;;5118632;28;20488;-79
2022/03/26 05:39:08;;;;;;;27.80;14.43;;;6.20;99.90;;;;;;5097900;28;20476;-79
2022/03/26 05:41:52;;;;;;;22.77;13.70;;;6.20;99.90;;;;;;5119592;28;20403;-80
2022/03/26 05:44:37;;;;;;;23.63;12.90;;;6.10;99.90;;;;;;5119523;28;20450;-79
2022/03/26 05:47:23;;;;;;;21.63;13.50;;;6.20;99.90;;;;;;5119811;28;20399;-79
2022/03/26 05:50:13;;;;;;;32.30;15.83;;;6.20;99.90;;;;;;5119313;28;20419;-80
2022/03/26 05:52:57;;;;;;;29.10;16.27;;;6.20;99.90;;;;;;5119175;28;20385;-79
2022/03/26 05:55:42;;;;;;;29.60;14.93;;;6.20;99.90;;;;;;5118942;28;20443;-79
2022/03/26 05:58:26;;;;;;;24.90;13.37;;;6.20;99.90;;;;;;5119387;28;20459;-80
2022/03/26 06:01:11;;;;;;;24.40;14.97;;;6.20;99.90;;;;;;5119236;28;20388;-79
2022/03/26 06:03:56;;;;;;;24.70;14.67;;;6.40;99.90;;;;;;5119214;28;20388;-80
2022/03/26 06:06:41;;;;;;;30.10;14.73;;;6.30;99.90;;;;;;5119066;28;20463;-80
2022/03/26 06:09:25;;;;;;;29.23;13.80;;;6.40;99.90;;;;;;5118967;28;20402;-79
2022/03/26 06:12:10;;;;;;;20.63;13.83;;;6.40;99.90;;;;;;5118463;28;20421;-80
2022/03/26 06:14:55;;;;;;;28.20;14.40;;;6.40;99.90;;;;;;5118921;28;20380;-80
2022/03/26 06:17:40;;;;;;;18.87;13.10;;;6.50;99.90;;;;;;5103840;28;20444;-79
2022/03/26 06:20:25;;;;;;;20.10;13.10;;;6.50;99.90;;;;;;5118375;28;20443;-79
2022/03/26 06:23:10;;;;;;;31.30;14.47;;;6.50;99.90;;;;;;5118801;28;20408;-79
2022/03/26 06:25:55;;;;;;;17.17;10.63;;;6.50;99.90;;;;;;5118680;28;20387;-79
2022/03/26 06:28:40;;;;;;;24.50;12.70;;;6.50;99.90;;;;;;5103503;28;20403;-79
2022/03/26 06:31:24;;;;;;;23.03;14.23;;;6.60;99.90;;;;;;5118801;28;20392;-79
2022/03/26 06:34:09;;;;;;;27.00;13.87;;;6.60;99.90;;;;;;5112084;28;20426;-80
2022/03/26 06:36:54;;;;;;;25.57;14.40;;;6.70;99.90;;;;;;5116602;28;20467;-79
2022/03/26 06:39:38;;;;;;;25.37;14.77;;;6.70;99.90;;;;;;5116203;28;20404;-80
2022/03/26 06:42:23;;;;;;;22.50;11.97;;;6.80;99.90;;;;;;5116870;28;20479;-79
2022/03/26 06:45:08;;;;;;;22.03;13.67;;;6.90;99.90;;;;;;5118704;28;20388;-80
2022/03/26 06:47:53;;;;;;;27.37;13.50;;;7.00;99.90;;;;;;5117036;28;20460;-78
2022/03/26 06:50:38;;;;;;;22.67;14.47;;;7.10;99.90;;;;;;5102663;28;20387;-79
2022/03/26 06:53:23;;;;;;;19.60;14.30;;;7.10;99.90;;;;;;5117384;28;20387;-80
2022/03/26 06:56:08;;;;;;;20.77;13.03;;;7.10;99.90;;;;;;5117475;28;20443;-79
2022/03/26 06:58:52;;;;;;;20.40;13.50;;;7.30;99.90;;;;;;5117187;28;20470;-79
2022/03/26 07:01:37;;;;;;;22.23;14.10;;;7.40;99.90;;;;;;5117485;28;20418;-79
2022/03/26 07:04:22;;;;;;;29.53;14.90;;;7.50;99.90;;;;;;5097450;28;20388;-79
2022/03/26 07:07:06;;;;;;;37.10;16.63;;;7.50;99.90;;;;;;5115645;28;20451;-80
2022/03/26 07:10:02;;;;;;;34.83;17.33;;;7.50;99.90;;;;;;5101558;28;20403;-80
2022/03/26 07:12:47;;;;;;;24.13;13.30;;;7.50;99.90;;;;;;5086548;28;20438;-79
2022/03/26 07:15:31;;;;;;;22.97;15.53;;;7.70;99.90;;;;;;5115117;28;20388;-80
2022/03/26 07:18:16;;;;;;;34.93;17.10;;;7.90;99.90;;;;;;5077533;28;20562;-79
2022/03/26 07:21:01;;;;;;;21.30;13.67;;;7.90;99.90;;;;;;5115566;28;20418;-80
2022/03/26 07:23:45;;;;;;;26.90;16.33;;;8.00;99.90;;;;;;5098318;28;20393;-78
2022/03/26 07:26:30;;;;;;;20.63;14.93;;;8.10;99.90;;;;;;5119836;28;20368;-79
2022/03/26 07:29:15;;;;;;;31.47;15.77;;;8.10;99.90;;;;;;5103756;28;20383;-79
2022/03/26 07:32:00;;;;;;;33.50;15.90;;;8.20;99.90;;;;;;5118836;28;20381;-80
2022/03/26 07:34:44;;;;;;;29.60;15.17;;;8.30;99.90;;;;;;5117106;28;20472;-79
2022/03/26 07:37:29;;;;;;;33.27;16.13;;;8.40;99.90;;;;;;5117876;28;20443;-79
2022/03/26 07:40:14;;;;;;;31.10;16.00;;;8.40;99.90;;;;;;5119415;28;20457;-79
2022/03/26 07:42:58;;;;;;;24.37;14.80;;;8.60;99.90;;;;;;5103866;28;20380;-80
2022/03/26 07:45:43;;;;;;;25.50;16.53;;;8.70;99.90;;;;;;5119120;28;20395;-79
2022/03/26 07:48:27;;;;;;;27.50;15.60;;;8.80;99.90;;;;;;5120223;28;20396;-79
2022/03/26 07:51:12;;;;;;;31.07;16.80;;;8.90;99.90;;;;;;5102879;28;20446;-78
2022/03/26 07:53:57;;;;;;;32.90;16.77;;;9.10;99.90;;;;;;5113385;28;20418;-80
2022/03/26 07:56:41;;;;;;;31.57;17.90;;;9.20;99.90;;;;;;5113602;28;20461;-81
2022/03/26 07:59:26;;;;;;;27.27;14.50;;;9.20;99.90;;;;;;5110241;28;20446;-78
2022/03/26 08:02:11;;;;;;;20.20;13.97;;;9.30;99.90;;;;;;5109011;28;20420;-81
2022/03/26 08:04:56;;;;;;;26.90;15.43;;;9.40;99.90;;;;;;5109343;28;20520;-80
2022/03/26 08:07:41;;;;;;;28.57;15.47;;;9.50;99.90;;;;;;5113538;28;20443;-80
2022/03/26 08:10:46;;;;;;;26.87;15.20;;;9.60;99.90;;;;;;5119349;28;20463;-80
2022/03/26 08:13:32;;;;;;;28.10;15.50;;;9.70;99.90;;;;;;5049780;28;20422;-79
2022/03/26 08:16:17;;;;;;;32.33;18.10;;;9.80;99.90;;;;;;5048199;28;20468;-79
2022/03/26 08:19:01;;;;;;;25.27;15.87;;;9.90;99.90;;;;;;5051023;28;20449;-79
2022/03/26 08:21:46;;;;;;;30.97;18.40;;;10.10;99.90;;;;;;5049945;28;20395;-80
2022/03/26 08:24:30;;;;;;;30.73;16.13;;;10.20;99.90;;;;;;5050390;28;20751;-80
2022/03/26 08:27:15;;;;;;;29.10;16.00;;;10.20;99.90;;;;;;5037440;28;20465;-80
2022/03/26 08:29:59;;;;;;;27.10;17.20;;;10.30;99.90;;;;;;5050995;28;20394;-80
2022/03/26 08:32:44;;;;;;;29.27;16.10;;;10.40;99.90;;;;;;5035967;28;20769;-79
2022/03/26 08:35:32;;;;;;;32.63;17.70;;;10.50;99.90;;;;;;5023417;28;20515;-80
2022/03/26 08:38:16;;;;;;;25.63;16.07;;;10.70;99.90;;;;;;5050174;28;20455;-79
2022/03/26 08:41:01;;;;;;;29.00;17.60;;;10.90;99.90;;;;;;5045333;28;20391;-80
2022/03/26 08:43:48;;;;;;;27.50;14.57;;;11.10;99.90;;;;;;5056880;28;20427;-79
2022/03/26 08:46:34;;;;;;;32.10;16.30;;;11.20;99.90;;;;;;5113015;28;20408;-80
2022/03/26 08:49:19;;;;;;;27.40;16.93;;;11.30;99.90;;;;;;5113072;28;20388;-79
2022/03/26 08:52:04;;;;;;;36.30;17.17;;;11.60;99.90;;;;;;5110464;28;20389;-80
2022/03/26 08:54:48;;;;;;;31.80;16.27;;;11.80;99.90;;;;;;5109464;28;20424;-79
2022/03/26 08:57:33;;;;;;;30.23;17.97;;;12.10;99.90;;;;;;5109299;28;20968;-80
2022/03/26 09:00:18;;;;;;;31.27;18.00;;;12.30;99.90;;;;;;5094689;28;20384;-80
2022/03/26 09:03:03;;;;;;;37.50;17.93;;;12.60;99.90;;;;;;5108960;28;20431;-81
2022/03/26 09:05:49;;;;;;;27.50;18.80;;;12.70;99.90;;;;;;5093326;28;20392;-79
2022/03/26 09:08:34;;;;;;;27.50;16.83;;;12.90;99.90;;;;;;5108524;28;20462;-79
2022/03/26 09:11:19;;;;;;;28.27;19.03;;;13.20;99.90;;;;;;5109303;28;20377;-80
2022/03/26 09:14:04;;;;;;;30.17;17.37;;;13.50;99.90;;;;;;5112048;28;20400;-81
2022/03/26 09:16:48;;;;;;;33.83;18.33;;;13.80;99.90;;;;;;5110406;28;20442;-79
2022/03/26 09:19:33;;;;;;;29.87;18.03;;;13.90;99.90;;;;;;5111413;28;20522;-78
2022/03/26 09:22:18;;;;;;;28.97;16.37;;;14.10;99.90;;;;;;5112317;28;20376;-79
2022/03/26 09:25:04;;;;;;;30.33;19.13;;;14.20;99.90;;;;;;5114676;28;20388;-80
2022/03/26 09:27:50;;;;;;;35.13;18.87;;;14.40;99.90;;;;;;5115782;28;20387;-79
2022/03/26 09:30:36;;;;;;;31.63;19.07;;;14.60;99.90;;;;;;5116461;28;20466;-80
2022/03/26 09:33:22;;;;;;;35.47;19.17;;;14.80;99.90;;;;;;5115625;28;20389;-81
2022/03/26 09:36:09;;;;;;;30.03;17.87;;;15.00;99.90;;;;;;5097900;28;20452;-80
2022/03/26 09:38:53;;;;;;;31.80;16.40;;;15.20;99.90;;;;;;5069888;28;20467;-80
2022/03/26 09:41:39;;;;;;;27.83;18.20;;;15.50;99.90;;;;;;5112436;28;20385;-80
2022/03/26 09:44:24;;;;;;;30.30;18.90;;;15.70;99.90;;;;;;5111728;28;20414;-80
2022/03/26 09:47:09;;;;;;;31.77;18.53;;;16.00;99.90;;;;;;5110664;28;20467;-81
2022/03/26 09:49:54;;;;;;;49.23;17.67;;;16.10;99.90;;;;;;5115225;28;20403;-81
2022/03/26 09:52:39;;;;;;;28.40;20.10;;;16.40;99.90;;;;;;5095509;28;20714;-80
2022/03/26 09:55:24;;;;;;;29.20;19.07;;;16.70;97.20;;;;;;5110765;28;20511;-79
2022/03/26 09:58:10;;;;;;;30.37;18.90;;;16.40;96.80;;;;;;5111598;28;20430;-80
2022/03/26 10:00:56;;;;;;;33.37;19.00;;;16.90;95.70;;;;;;5097124;28;20399;-79
2022/03/26 10:03:41;;;;;;;25.63;18.23;;;17.50;93.80;;;;;;5111067;28;20411;-80
2022/03/26 10:06:28;;;;;;;29.20;18.30;;;17.80;91.90;;;;;;5096953;28;20443;-80
2022/03/26 10:09:12;;;;;;;26.13;18.30;;;17.90;90.90;;;;;;5112389;28;20410;-81
2022/03/26 10:12:02;;;;;;;26.30;20.63;;;18.10;88.20;;;;;;5098158;28;20399;-81
2022/03/26 10:14:52;;;;;;;29.27;18.77;;;18.70;87.20;;;;;;5113405;28;20438;-80
2022/03/26 10:17:37;;;;;;;37.07;19.10;;;18.90;83.80;;;;;;5111994;28;20450;-80
2022/03/26 10:20:22;;;;;;;27.80;18.10;;;19.20;82.90;;;;;;5112085;28;20380;-79
2022/03/26 10:23:07;;;;;;;35.30;17.20;;;19.30;80.00;;;;;;5111378;28;20436;-80
2022/03/26 10:26:25;;;;;;;34.10;17.43;;;19.60;81.40;;;;;;5111396;28;20441;-81
2022/03/26 10:29:10;;;;;;;24.70;16.20;;;20.00;82.50;;;;;;5069070;28;20409;-80
2022/03/26 10:34:52;;;;;;;34.23;18.70;;;20.50;74.40;;;;;;5070050;28;20398;-80
2022/03/26 10:37:48;;;;;;;25.77;16.67;;;20.80;71.80;;;;;;5070405;28;20445;-81
2022/03/26 10:40:37;;;;;;;23.87;18.90;;;20.80;71.10;;;;;;5069700;28;20486;-81
2022/03/26 10:43:24;;;;;;;30.47;18.50;;;21.10;69.10;;;;;;5069211;28;20413;-80
2022/03/26 10:46:09;;;;;;;28.20;16.53;;;20.60;67.90;;;;;;5069584;28;20393;-80
2022/03/26 10:49:03;;;;;;;22.40;16.90;;;20.80;68.90;;;;;;5054716;28;20386;-81
2022/03/26 10:51:47;;;;;;;23.10;16.50;;;21.00;68.60;;;;;;5055513;28;20405;-81
2022/03/26 10:54:33;;;;;;;20.80;16.50;;;21.10;69.30;;;;;;5068983;28;20405;-79
2022/03/26 10:57:21;;;;;;;20.70;13.43;;;21.50;69.20;;;;;;5068462;28;20823;-80
2022/03/26 11:00:07;;;;;;;18.83;14.20;;;22.10;67.50;;;;;;5070978;28;20506;-80
2022/03/26 11:02:52;;;;;;;25.77;16.00;;;22.10;64.00;;;;;;5072982;28;20452;-80
2022/03/26 11:05:42;;;;;;;22.50;16.60;;;22.30;63.30;;;;;;5073068;28;20382;-80
2022/03/26 11:08:31;;;;;;;26.40;16.73;;;22.50;64.30;;;;;;5071493;28;20417;-80
2022/03/26 11:11:18;;;;;;;25.77;17.67;;;22.50;62.50;;;;;;5045480;28;20412;-80
2022/03/26 11:14:11;;;;;;;26.73;17.63;;;22.30;62.00;;;;;;5061024;28;20389;-81
2022/03/26 11:17:27;;;;;;;26.97;18.77;;;22.60;60.70;;;;;;5061516;28;20454;-81
2022/03/26 11:20:38;;;;;;;17.63;15.37;;;22.90;61.00;;;;;;5094165;28;20515;-81
2022/03/26 11:23:51;;;;;;;16.40;12.73;;;22.90;60.90;;;;;;5093969;28;20369;-81
2022/03/26 11:27:11;;;;;;;13.53;10.70;;;23.30;57.30;;;;;;5053087;28;20394;-81
2022/03/26 11:30:11;;;;;;;13.33;10.63;;;23.30;55.80;;;;;;5038561;28;20425;-80
2022/03/26 11:33:09;;;;;;;13.60;11.33;;;23.50;55.80;;;;;;5024516;28;20414;-82
2022/03/26 11:35:58;;;;;;;17.60;11.37;;;24.30;54.60;;;;;;5038140;28;20530;-80
2022/03/26 11:38:55;;;;;;;11.97;9.93;;;24.70;54.60;;;;;;5038144;28;20437;-81
2022/03/26 11:41:41;;;;;;;19.03;10.17;;;24.50;52.40;;;;;;5039172;28;20421;-81
2022/03/26 11:44:26;;;;;;;14.77;10.60;;;24.40;51.40;;;;;;5039039;28;20386;-81
2022/03/26 11:53:34;;;;;;;15.20;10.67;;;23.70;49.80;;;;;;5038262;28;20389;-81
2022/03/26 11:56:22;;;;;;;14.53;10.97;;;25.30;49.00;;;;;;5042121;28;20441;-80
2022/03/26 11:59:27;;;;;;;26.30;13.10;;;24.70;48.30;;;;;;5093354;28;20464;-80
2022/03/26 12:02:22;;;;;;;13.27;10.53;;;21.80;50.90;;;;;;5094125;28;20395;-81
2022/03/26 12:08:35;;;;;;;20.80;10.83;;;22.40;52.80;;;;;;5095945;28;20448;-80
2022/03/26 12:11:25;;;;;;;20.97;10.70;;;24.30;50.30;;;;;;5091037;28;20438;-80
2022/03/26 12:14:09;;;;;;;16.50;12.60;;;24.50;50.40;;;;;;5092117;28;20408;-79
2022/03/26 12:16:55;;;;;;;20.57;13.03;;;23.20;51.00;;;;;;5092243;28;20390;-80
2022/03/26 12:19:47;;;;;;;18.90;11.60;;;24.00;51.10;;;;;;5050628;28;20475;-80
2022/03/26 12:22:33;;;;;;;18.53;14.93;;;25.40;50.80;;;;;;5093510;28;20446;-79
2022/03/26 12:25:32;;;;;;;18.03;14.10;;;26.60;48.80;;;;;;5091934;28;20401;-80
2022/03/26 12:28:38;;;;;;;16.93;13.27;;;25.40;48.10;;;;;;5077381;28;20459;-81
2022/03/26 12:31:29;;;;;;;12.43;10.60;;;25.80;48.60;;;;;;5031935;28;20427;-81
2022/03/26 12:34:14;;;;;;;11.37;8.87;;;26.50;47.10;;;;;;5016907;28;20394;-81
2022/03/26 12:37:01;;;;;;;15.63;10.50;;;25.60;46.20;;;;;;5030144;28;20394;-81
2022/03/26 12:39:46;;;;;;;17.07;10.80;;;26.90;43.70;;;;;;4990955;28;20232;-79
2022/03/26 12:42:30;;;;;;;10.50;9.07;;;25.60;43.80;;;;;;4992576;28;20471;-80
2022/03/26 12:45:16;;;;;;;19.63;11.17;;;23.60;45.80;;;;;;4978819;28;20405;-81
2022/03/26 12:48:01;;;;;;;18.60;10.73;;;22.70;47.40;;;;;;4976509;28;20472;-79
2022/03/26 12:50:51;;;;;;;14.03;10.50;;;23.80;49.30;;;;;;4976560;28;20397;-81
2022/03/26 12:53:46;;;;;;;14.33;12.40;;;25.10;46.80;;;;;;4978084;28;20416;-79
2022/03/26 12:56:36;;;;;;;14.57;12.70;;;26.10;45.80;;;;;;4982708;28;20971;-80
2022/03/26 12:59:25;;;;;;;13.17;11.47;;;27.00;45.70;;;;;;4978515;28;20468;-81
2022/03/26 13:02:12;;;;;;;15.63;12.10;;;27.80;44.50;;;;;;4977506;28;20427;-77
2022/03/26 13:04:59;;;;;;;22.83;11.80;;;27.40;44.50;;;;;;4989235;28;20245;-80
2022/03/26 13:07:51;;;;;;;14.63;11.90;;;27.20;44.10;;;;;;4965001;28;20451;-80
2022/03/26 13:10:38;;;;;;;16.70;9.97;;;27.20;44.20;;;;;;5033413;28;20402;-80
2022/03/26 13:13:24;;;;;;;14.63;9.90;;;27.40;42.80;;;;;;5063089;28;20218;-81
2022/03/26 13:16:13;;;;;;;11.60;9.60;;;27.40;42.70;;;;;;5069318;28;20174;-78
2022/03/26 13:19:04;;;;;;;15.83;11.70;;;23.00;41.80;;;;;;5079616;28;20251;-80
2022/03/26 13:22:01;;;;;;;14.80;12.30;;;24.80;46.10;;;;;;5028424;28;20419;-80
2022/03/26 13:24:52;;;;;;;20.03;13.27;;;23.80;47.10;;;;;;5028347;28;20427;-80
2022/03/26 13:27:37;;;;;;;16.43;12.37;;;25.50;47.00;;;;;;5036558;28;20922;-81
2022/03/26 13:30:22;;;;;;;14.30;10.83;;;25.70;46.70;;;;;;5055037;28;20605;-81
2022/03/26 13:33:11;;;;;;;14.60;11.40;;;26.90;45.50;;;;;;5054406;28;20587;-81
2022/03/26 13:35:59;;;;;;;14.43;10.63;;;28.30;43.60;;;;;;5025636;28;20426;-81
2022/03/26 13:38:44;;;;;;;18.60;10.87;;;25.70;43.30;;;;;;5016831;28;20292;-80
2022/03/26 13:41:29;;;;;;;18.00;11.00;;;24.20;45.10;;;;;;5045061;28;20409;-82
2022/03/26 13:44:13;;;;;;;16.63;11.20;;;24.00;46.10;;;;;;5058200;28;20928;-80
2022/03/26 13:47:00;;;;;;;15.73;11.80;;;24.20;46.80;;;;;;5052156;28;20396;-82
2022/03/26 13:49:47;;;;;;;17.00;10.93;;;25.90;44.50;;;;;;5080103;28;20412;-81
2022/03/26 13:52:34;;;;;;;18.87;12.77;;;24.70;44.60;;;;;;5090663;28;20403;-82
2022/03/26 13:55:24;;;;;;;15.60;11.87;;;25.20;44.90;;;;;;5103664;28;20423;-81
2022/03/26 13:58:15;;;;;;;20.90;12.20;;;24.70;45.00;;;;;;5093579;28;20418;-81
2022/03/26 14:01:07;;;;;;;16.83;12.20;;;25.20;47.20;;;;;;5080025;28;20413;-80
2022/03/26 14:03:55;;;;;;;17.97;13.40;;;26.70;45.20;;;;;;5082470;28;20397;-80
2022/03/26 14:06:39;;;;;;;17.47;10.87;;;23.90;45.80;;;;;;5079901;28;20449;-79
2022/03/26 14:09:28;;;;;;;17.47;13.40;;;26.10;46.70;;;;;;5068841;28;20445;-80
2022/03/26 14:12:14;;;;;;;17.33;13.10;;;26.70;44.50;;;;;;5069921;28;20410;-81
2022/03/26 14:15:02;;;;;;;18.57;12.37;;;27.10;45.10;;;;;;5055776;28;20393;-80
2022/03/26 14:17:46;;;;;;;20.50;12.10;;;27.50;45.00;;;;;;5034621;28;20410;-80
2022/03/26 14:20:32;;;;;;;19.67;13.87;;;27.40;45.10;;;;;;5034433;28;20441;-80
2022/03/26 14:23:19;;;;;;;15.70;13.00;;;27.30;44.50;;;;;;5034533;28;20402;-80